createdAt,value
2018-06-11T00:00:01.950Z,803.39
2018-06-11T00:00:06.076Z,803.37
2018-06-11T00:00:10.186Z,803.37
2018-06-11T00:00:14.499Z,803.38
2018-06-11T00:00:18.595Z,803.41
2018-06-11T00:00:22.799Z,803.39
2018-06-11T00:00:27.002Z,803.37
2018-06-11T00:00:31.109Z,803.39
2018-06-11T00:00:35.316Z,803.37
2018-06-11T00:00:39.422Z,803.33
2018-06-11T00:00:43.517Z,803.34
2018-06-11T00:00:47.722Z,803.42
2018-06-11T00:00:51.826Z,803.35
2018-06-11T00:00:56.050Z,803.37
2018-06-11T00:01:00.253Z,803.38
2018-06-11T00:01:04.258Z,803.35
2018-06-11T00:01:08.465Z,803.34
2018-06-11T00:01:12.771Z,803.38
2018-06-11T00:01:16.873Z,803.39
2018-06-11T00:01:21.185Z,803.31
2018-06-11T00:01:25.393Z,803.35
2018-06-11T00:01:29.601Z,803.36
2018-06-11T00:01:33.803Z,803.36
2018-06-11T00:01:38.117Z,803.32
2018-06-11T00:01:42.323Z,803.36
2018-06-11T00:01:46.531Z,803.38
2018-06-11T00:01:50.630Z,803.35
2018-06-11T00:01:54.940Z,803.35
2018-06-11T00:01:59.255Z,803.35
2018-06-11T00:02:03.580Z,803.37
2018-06-11T00:02:07.893Z,803.36
2018-06-11T00:02:12.100Z,803.36
2018-06-11T00:02:16.409Z,803.35
2018-06-11T00:02:20.613Z,803.32
2018-06-11T00:02:24.922Z,803.34
2018-06-11T00:02:29.122Z,803.37
2018-06-11T00:02:33.215Z,803.36
2018-06-11T00:02:37.527Z,803.32
2018-06-11T00:02:41.622Z,803.36
2018-06-11T00:02:45.826Z,803.35
2018-06-11T00:02:49.925Z,803.34
2018-06-11T00:02:54.023Z,803.35
2018-06-11T00:02:58.331Z,803.32
2018-06-11T00:03:02.630Z,803.29
2018-06-11T00:03:06.517Z,803.34
2018-06-11T00:03:10.621Z,803.34
2018-06-11T00:03:14.827Z,803.38
2018-06-11T00:03:18.925Z,803.36
2018-06-11T00:03:23.028Z,803.37
2018-06-11T00:03:27.237Z,803.34
2018-06-11T00:03:31.228Z,803.29
2018-06-11T00:03:35.321Z,803.35
2018-06-11T00:03:39.422Z,803.36
2018-06-11T00:03:43.625Z,803.4
2018-06-11T00:03:47.822Z,803.35
2018-06-11T00:03:52.138Z,803.31
2018-06-11T00:03:56.452Z,803.35
2018-06-11T00:04:00.655Z,803.36
2018-06-11T00:04:04.860Z,803.38
2018-06-11T00:04:09.064Z,803.38
2018-06-11T00:04:13.377Z,803.34
2018-06-11T00:04:17.621Z,803.37
2018-06-11T00:04:21.934Z,803.38
2018-06-11T00:04:26.029Z,803.37
2018-06-11T00:04:30.019Z,803.4
2018-06-11T00:04:34.225Z,803.36
2018-06-11T00:04:38.533Z,803.39
2018-06-11T00:04:42.838Z,803.4
2018-06-11T00:04:47.048Z,803.37
2018-06-11T00:04:51.142Z,803.38
2018-06-11T00:04:55.453Z,803.35
2018-06-11T00:04:59.653Z,803.37
2018-06-11T00:05:03.641Z,803.36
2018-06-11T00:05:07.646Z,803.37
2018-06-11T00:05:11.859Z,803.43
2018-06-11T00:05:16.071Z,803.4
2018-06-11T00:05:20.276Z,803.39
2018-06-11T00:05:24.583Z,803.43
2018-06-11T00:05:28.794Z,803.43
2018-06-11T00:05:33.009Z,803.41
2018-06-11T00:05:37.217Z,803.41
2018-06-11T00:05:41.423Z,803.42
2018-06-11T00:05:45.632Z,803.4
2018-06-11T00:05:49.935Z,803.4
2018-06-11T00:05:54.135Z,803.4
2018-06-11T00:05:58.229Z,803.43
2018-06-11T00:06:02.545Z,803.42
2018-06-11T00:06:06.753Z,803.39
2018-06-11T00:06:10.962Z,803.43
2018-06-11T00:06:15.173Z,803.44
2018-06-11T00:06:19.373Z,803.4
2018-06-11T00:06:23.575Z,803.44
2018-06-11T00:06:27.669Z,803.42
2018-06-11T00:06:31.869Z,803.42
2018-06-11T00:06:36.174Z,803.42
2018-06-11T00:06:40.495Z,803.42
2018-06-11T00:06:44.801Z,803.42
2018-06-11T00:06:49.001Z,803.48
2018-06-11T00:06:53.308Z,803.4
2018-06-11T00:06:57.621Z,803.43
2018-06-11T00:07:01.613Z,803.47
2018-06-11T00:07:05.711Z,803.48
2018-06-11T00:07:09.698Z,803.43
2018-06-11T00:07:14.023Z,803.47
2018-06-11T00:07:18.121Z,803.46
2018-06-11T00:07:22.212Z,803.47
2018-06-11T00:07:26.213Z,803.47
2018-06-11T00:07:30.349Z,803.48
2018-06-11T00:07:34.662Z,803.47
2018-06-11T00:07:38.980Z,803.46
2018-06-11T00:07:43.282Z,803.48
2018-06-11T00:07:47.379Z,803.48
2018-06-11T00:07:51.693Z,803.46
2018-06-11T00:07:55.899Z,803.49
2018-06-11T00:08:00.103Z,803.49
2018-06-11T00:08:04.245Z,803.5
2018-06-11T00:08:08.340Z,803.48
2018-06-11T00:08:12.663Z,803.45
2018-06-11T00:08:16.903Z,803.44
2018-06-11T00:08:21.104Z,803.46
2018-06-11T00:08:25.406Z,803.5
2018-06-11T00:08:29.518Z,803.46
2018-06-11T00:08:33.832Z,803.48
2018-06-11T00:08:37.941Z,803.44
2018-06-11T00:08:41.934Z,803.5
2018-06-11T00:08:46.237Z,803.43
2018-06-11T00:08:50.446Z,803.51
2018-06-11T00:08:54.643Z,803.51
2018-06-11T00:08:58.955Z,803.51
2018-06-11T00:09:03.202Z,803.52
2018-06-11T00:09:07.518Z,803.49
2018-06-11T00:09:11.716Z,803.48
2018-06-11T00:09:16.028Z,803.47
2018-06-11T00:09:20.230Z,803.48
2018-06-11T00:09:24.330Z,803.5
2018-06-11T00:09:28.428Z,803.48
2018-06-11T00:09:32.630Z,803.52
2018-06-11T00:09:36.728Z,803.51
2018-06-11T00:09:41.047Z,803.46
2018-06-11T00:09:45.252Z,803.54
2018-06-11T00:09:49.454Z,803.47
2018-06-11T00:09:53.653Z,803.54
2018-06-11T00:09:57.647Z,803.54
2018-06-11T00:10:01.746Z,803.55
2018-06-11T00:10:05.738Z,803.53
2018-06-11T00:10:09.838Z,803.53
2018-06-11T00:10:13.829Z,803.53
2018-06-11T00:10:18.059Z,803.48
2018-06-11T00:10:22.270Z,803.5
2018-06-11T00:10:26.477Z,803.52
2018-06-11T00:10:30.793Z,803.54
2018-06-11T00:10:34.998Z,803.53
2018-06-11T00:10:39.246Z,803.51
2018-06-11T00:10:43.556Z,803.49
2018-06-11T00:10:47.649Z,803.49
2018-06-11T00:10:51.904Z,803.51
2018-06-11T00:10:56.208Z,803.53
2018-06-11T00:11:00.522Z,803.54
2018-06-11T00:11:04.665Z,803.55
2018-06-11T00:11:08.763Z,803.51
2018-06-11T00:11:12.855Z,803.51
2018-06-11T00:11:17.163Z,803.52
2018-06-11T00:11:21.374Z,803.57
2018-06-11T00:11:25.573Z,803.54
2018-06-11T00:11:29.558Z,803.53
2018-06-11T00:11:33.657Z,803.52
2018-06-11T00:11:37.970Z,803.54
2018-06-11T00:11:42.279Z,803.54
2018-06-11T00:11:46.593Z,803.54
2018-06-11T00:11:50.687Z,803.58
2018-06-11T00:11:54.793Z,803.54
2018-06-11T00:11:58.999Z,803.55
2018-06-11T00:12:03.094Z,803.57
2018-06-11T00:12:07.198Z,803.55
2018-06-11T00:12:11.404Z,803.54
2018-06-11T00:12:15.713Z,803.57
2018-06-11T00:12:20.023Z,803.53
2018-06-11T00:12:24.229Z,803.58
2018-06-11T00:12:28.431Z,803.6
2018-06-11T00:12:32.629Z,803.57
2018-06-11T00:12:36.728Z,803.57
2018-06-11T00:12:41.050Z,803.6
2018-06-11T00:12:45.256Z,803.56
2018-06-11T00:12:49.561Z,803.59
2018-06-11T00:12:53.886Z,803.6
2018-06-11T00:12:58.084Z,803.6
2018-06-11T00:13:01.982Z,803.59
2018-06-11T00:13:06.082Z,803.59
2018-06-11T00:13:10.234Z,803.57
2018-06-11T00:13:14.440Z,803.58
2018-06-11T00:13:18.639Z,803.58
2018-06-11T00:13:22.847Z,803.62
2018-06-11T00:13:26.945Z,803.59
2018-06-11T00:13:31.251Z,803.55
2018-06-11T00:13:35.340Z,803.55
2018-06-11T00:13:39.646Z,803.6
2018-06-11T00:13:43.848Z,803.58
2018-06-11T00:13:48.054Z,803.61
2018-06-11T00:13:52.363Z,803.62
2018-06-11T00:13:56.677Z,803.6
2018-06-11T00:14:00.887Z,803.61
2018-06-11T00:14:04.985Z,803.58
2018-06-11T00:14:09.183Z,803.57
2018-06-11T00:14:13.281Z,803.59
2018-06-11T00:14:17.590Z,803.64
2018-06-11T00:14:21.903Z,803.63
2018-06-11T00:14:25.894Z,803.64
2018-06-11T00:14:29.998Z,803.65
2018-06-11T00:14:34.100Z,803.66
2018-06-11T00:14:38.295Z,803.63
2018-06-11T00:14:42.504Z,803.67
2018-06-11T00:14:46.608Z,803.65
2018-06-11T00:14:50.805Z,803.67
2018-06-11T00:14:54.900Z,803.71
2018-06-11T00:14:59.121Z,803.68
2018-06-11T00:15:03.117Z,803.67
2018-06-11T00:15:07.319Z,803.66
2018-06-11T00:15:11.523Z,803.67
2018-06-11T00:15:15.728Z,803.7
2018-06-11T00:15:19.827Z,803.7
2018-06-11T00:15:23.931Z,803.68
2018-06-11T00:15:28.141Z,803.66
2018-06-11T00:15:32.138Z,803.68
2018-06-11T00:15:36.132Z,803.7
2018-06-11T00:15:40.448Z,803.72
2018-06-11T00:15:44.660Z,803.73
2018-06-11T00:15:48.761Z,803.73
2018-06-11T00:15:53.069Z,803.74
2018-06-11T00:15:57.270Z,803.73
2018-06-11T00:16:01.371Z,803.74
2018-06-11T00:16:05.364Z,803.75
2018-06-11T00:16:09.575Z,803.75
2018-06-11T00:16:13.918Z,803.76
2018-06-11T00:16:17.912Z,803.76
2018-06-11T00:16:22.019Z,803.76
2018-06-11T00:16:26.116Z,803.77
2018-06-11T00:16:30.435Z,803.8
2018-06-11T00:16:34.639Z,803.76
2018-06-11T00:16:38.736Z,803.8
2018-06-11T00:16:43.046Z,803.75
2018-06-11T00:16:47.352Z,803.83
2018-06-11T00:16:51.664Z,803.8
2018-06-11T00:16:55.986Z,803.79
2018-06-11T00:17:00.300Z,803.82
2018-06-11T00:17:04.523Z,803.83
2018-06-11T00:17:08.723Z,803.81
2018-06-11T00:17:12.928Z,803.81
2018-06-11T00:17:17.237Z,803.82
2018-06-11T00:17:21.441Z,803.84
2018-06-11T00:17:25.540Z,803.83
2018-06-11T00:17:29.640Z,803.84
2018-06-11T00:17:33.856Z,803.82
2018-06-11T00:17:38.065Z,803.88
2018-06-11T00:17:42.158Z,803.78
2018-06-11T00:17:46.469Z,803.76
2018-06-11T00:17:50.682Z,803.83
2018-06-11T00:17:54.989Z,803.82
2018-06-11T00:17:59.193Z,803.83
2018-06-11T00:18:03.497Z,803.87
2018-06-11T00:18:07.595Z,803.85
2018-06-11T00:18:11.808Z,803.81
2018-06-11T00:18:16.127Z,803.87
2018-06-11T00:18:20.372Z,803.84
2018-06-11T00:18:24.697Z,803.86
2018-06-11T00:18:28.909Z,803.88
2018-06-11T00:18:33.005Z,803.89
2018-06-11T00:18:37.107Z,803.88
2018-06-11T00:18:41.316Z,803.88
2018-06-11T00:18:45.521Z,803.89
2018-06-11T00:18:49.827Z,803.89
2018-06-11T00:18:54.141Z,803.88
2018-06-11T00:18:58.340Z,803.92
2018-06-11T00:19:02.582Z,803.88
2018-06-11T00:19:06.895Z,803.89
2018-06-11T00:19:11.101Z,803.9
2018-06-11T00:19:15.203Z,803.91
2018-06-11T00:19:19.294Z,803.94
2018-06-11T00:19:23.611Z,803.94
2018-06-11T00:19:27.921Z,803.94
2018-06-11T00:19:32.125Z,803.93
2018-06-11T00:19:36.225Z,803.95
2018-06-11T00:19:40.569Z,803.93
2018-06-11T00:19:44.879Z,803.89
2018-06-11T00:19:48.869Z,803.96
2018-06-11T00:19:53.176Z,803.92
2018-06-11T00:19:57.380Z,803.97
2018-06-11T00:20:01.700Z,803.96
2018-06-11T00:20:05.698Z,803.97
2018-06-11T00:20:10.019Z,803.95
2018-06-11T00:20:14.227Z,803.91
2018-06-11T00:20:18.220Z,804.02
2018-06-11T00:20:22.414Z,804
2018-06-11T00:20:26.514Z,803.98
2018-06-11T00:20:30.615Z,803.99
2018-06-11T00:20:34.819Z,804
2018-06-11T00:20:39.132Z,803.96
2018-06-11T00:20:43.334Z,803.97
2018-06-11T00:20:47.537Z,803.98
2018-06-11T00:20:51.844Z,804.03
2018-06-11T00:20:56.048Z,804.02
2018-06-11T00:21:00.256Z,803.99
2018-06-11T00:21:04.397Z,803.99
2018-06-11T00:21:08.542Z,804
2018-06-11T00:21:12.748Z,804.04
2018-06-11T00:21:16.953Z,804.05
2018-06-11T00:21:21.052Z,804.05
2018-06-11T00:21:25.148Z,804.02
2018-06-11T00:21:29.451Z,804.04
2018-06-11T00:21:33.648Z,804.08
2018-06-11T00:21:37.850Z,804.07
2018-06-11T00:21:42.053Z,804.08
2018-06-11T00:21:46.259Z,804.07
2018-06-11T00:21:50.470Z,804.08
2018-06-11T00:21:54.782Z,804.11
2018-06-11T00:21:58.874Z,804.12
2018-06-11T00:22:03.075Z,804.1
2018-06-11T00:22:07.387Z,804.1
2018-06-11T00:22:11.597Z,804.1
2018-06-11T00:22:15.695Z,804.09
2018-06-11T00:22:19.796Z,804.09
2018-06-11T00:22:24.106Z,804.08
2018-06-11T00:22:28.418Z,804.12
2018-06-11T00:22:32.406Z,804.09
2018-06-11T00:22:36.501Z,804.13
2018-06-11T00:22:40.813Z,804.1
2018-06-11T00:22:45.015Z,804.11
2018-06-11T00:22:49.228Z,804.1
2018-06-11T00:22:53.547Z,804.12
2018-06-11T00:22:58.150Z,804.13
2018-06-11T00:23:02.555Z,804.14
2018-06-11T00:23:06.848Z,804.15
2018-06-11T00:23:11.058Z,804.14
2018-06-11T00:23:15.271Z,804.14
2018-06-11T00:23:19.273Z,804.14
2018-06-11T00:23:23.374Z,804.18
2018-06-11T00:23:27.367Z,804.16
2018-06-11T00:23:31.565Z,804.15
2018-06-11T00:23:35.777Z,804.15
2018-06-11T00:23:39.984Z,804.19
2018-06-11T00:23:44.297Z,804.17
2018-06-11T00:23:48.289Z,804.2
2018-06-11T00:23:52.599Z,804.19
2018-06-11T00:23:56.915Z,804.16
2018-06-11T00:24:01.118Z,804.19
2018-06-11T00:24:05.441Z,804.19
2018-06-11T00:24:09.545Z,804.18
2018-06-11T00:24:13.753Z,804.2
2018-06-11T00:24:18.077Z,804.14
2018-06-11T00:24:22.072Z,804.17
2018-06-11T00:24:26.398Z,804.2
2018-06-11T00:24:30.706Z,804.21
2018-06-11T00:24:34.909Z,804.23
2018-06-11T00:24:39.250Z,804.2
2018-06-11T00:24:43.463Z,804.21
2018-06-11T00:24:47.778Z,804.18
2018-06-11T00:24:51.886Z,804.19
2018-06-11T00:24:56.090Z,804.24
2018-06-11T00:25:00.188Z,804.2
2018-06-11T00:25:04.289Z,804.23
2018-06-11T00:25:08.284Z,804.2
2018-06-11T00:25:12.494Z,804.21
2018-06-11T00:25:16.594Z,804.19
2018-06-11T00:25:20.798Z,804.24
2018-06-11T00:25:25.007Z,804.22
2018-06-11T00:25:29.108Z,804.2
2018-06-11T00:25:33.309Z,804.18
2018-06-11T00:25:37.408Z,804.23
2018-06-11T00:25:41.653Z,804.22
2018-06-11T00:25:45.967Z,804.22
2018-06-11T00:25:50.171Z,804.21
2018-06-11T00:25:54.482Z,804.23
2018-06-11T00:25:58.685Z,804.23
2018-06-11T00:26:02.695Z,804.24
2018-06-11T00:26:06.690Z,804.26
2018-06-11T00:26:10.786Z,804.24
2018-06-11T00:26:14.988Z,804.24
2018-06-11T00:26:19.083Z,804.23
2018-06-11T00:26:23.292Z,804.23
2018-06-11T00:26:27.604Z,804.25
2018-06-11T00:26:31.916Z,804.23
2018-06-11T00:26:36.230Z,804.22
2018-06-11T00:26:40.439Z,804.19
2018-06-11T00:26:44.649Z,804.24
2018-06-11T00:26:48.859Z,804.23
2018-06-11T00:26:52.855Z,804.21
2018-06-11T00:26:57.167Z,804.2
2018-06-11T00:27:01.279Z,804.18
2018-06-11T00:27:05.380Z,804.19
2018-06-11T00:27:09.696Z,804.17
2018-06-11T00:27:14.009Z,804.21
2018-06-11T00:27:18.321Z,804.21
2018-06-11T00:27:22.525Z,804.25
2018-06-11T00:27:26.729Z,804.25
2018-06-11T00:27:30.835Z,804.28
2018-06-11T00:27:35.037Z,804.26
2018-06-11T00:27:39.134Z,804.22
2018-06-11T00:27:43.337Z,804.24
2018-06-11T00:27:47.644Z,804.25
2018-06-11T00:27:51.850Z,804.25
2018-06-11T00:27:55.949Z,804.2
2018-06-11T00:28:00.155Z,804.2
2018-06-11T00:28:04.041Z,804.18
2018-06-11T00:28:08.353Z,804.23
2018-06-11T00:28:12.552Z,804.19
2018-06-11T00:28:16.762Z,804.22
2018-06-11T00:28:21.082Z,804.2
2018-06-11T00:28:25.389Z,804.22
2018-06-11T00:28:29.589Z,804.23
2018-06-11T00:28:33.902Z,804.2
2018-06-11T00:28:37.895Z,804.25
2018-06-11T00:28:41.989Z,804.26
2018-06-11T00:28:46.308Z,804.22
2018-06-11T00:28:50.402Z,804.24
2018-06-11T00:28:54.603Z,804.26
2018-06-11T00:28:58.695Z,804.22
2018-06-11T00:29:02.798Z,804.23
2018-06-11T00:29:06.899Z,804.2
2018-06-11T00:29:11.204Z,804.23
2018-06-11T00:29:15.403Z,804.2
2018-06-11T00:29:19.598Z,804.21
2018-06-11T00:29:23.902Z,804.24
2018-06-11T00:29:27.992Z,804.27
2018-06-11T00:29:32.305Z,804.23
2018-06-11T00:29:36.508Z,804.23
2018-06-11T00:29:40.603Z,804.22
2018-06-11T00:29:44.710Z,804.21
2018-06-11T00:29:49.018Z,804.18
2018-06-11T00:29:53.331Z,804.2
2018-06-11T00:29:57.652Z,804.2
2018-06-11T00:30:01.859Z,804.2
2018-06-11T00:30:06.201Z,804.21
2018-06-11T00:30:10.280Z,804.15
2018-06-11T00:30:14.591Z,804.21
2018-06-11T00:30:18.793Z,804.21
2018-06-11T00:30:22.993Z,804.21
2018-06-11T00:30:27.197Z,804.19
2018-06-11T00:30:31.408Z,804.18
2018-06-11T00:30:35.501Z,804.19
2018-06-11T00:30:39.705Z,804.19
2018-06-11T00:30:43.918Z,804.22
2018-06-11T00:30:48.118Z,804.19
2018-06-11T00:30:52.314Z,804.21
2018-06-11T00:30:56.634Z,804.19
2018-06-11T00:31:00.836Z,804.19
2018-06-11T00:31:04.838Z,804.19
2018-06-11T00:31:08.827Z,804.21
2018-06-11T00:31:13.146Z,804.21
2018-06-11T00:31:17.352Z,804.21
2018-06-11T00:31:21.665Z,804.18
2018-06-11T00:31:25.976Z,804.2
2018-06-11T00:31:30.177Z,804.22
2018-06-11T00:31:34.494Z,804.2
2018-06-11T00:31:38.804Z,804.16
2018-06-11T00:31:43.009Z,804.19
2018-06-11T00:31:47.208Z,804.22
2018-06-11T00:31:51.412Z,804.21
2018-06-11T00:31:55.724Z,804.21
2018-06-11T00:32:00.038Z,804.16
2018-06-11T00:32:04.408Z,804.19
2018-06-11T00:32:08.509Z,804.2
2018-06-11T00:32:12.621Z,804.2
2018-06-11T00:32:16.830Z,804.21
2018-06-11T00:32:20.917Z,804.18
2018-06-11T00:32:25.022Z,804.19
2018-06-11T00:32:29.273Z,804.14
2018-06-11T00:32:33.374Z,804.18
2018-06-11T00:32:37.361Z,804.19
2018-06-11T00:32:41.461Z,804.2
2018-06-11T00:32:45.674Z,804.15
2018-06-11T00:32:49.874Z,804.18
2018-06-11T00:32:54.073Z,804.2
2018-06-11T00:32:58.380Z,804.18
2018-06-11T00:33:02.592Z,804.17
2018-06-11T00:33:06.687Z,804.17
2018-06-11T00:33:10.893Z,804.23
2018-06-11T00:33:51.400Z,804.25
2018-06-11T00:33:55.603Z,804.27
2018-06-11T00:33:59.809Z,804.25
2018-06-11T00:34:03.793Z,804.25
2018-06-11T00:34:07.897Z,804.27
2018-06-11T00:34:11.993Z,804.28
2018-06-11T00:34:16.301Z,804.27
2018-06-11T00:34:20.617Z,804.23
2018-06-11T00:34:24.924Z,804.2
2018-06-11T00:34:29.249Z,804.32
2018-06-11T00:34:33.348Z,804.28
2018-06-11T00:34:37.447Z,804.29
2018-06-11T00:34:41.660Z,804.25
2018-06-11T00:34:45.860Z,804.3
2018-06-11T00:34:49.886Z,804.28
2018-06-11T00:34:54.198Z,804.26
2018-06-11T00:34:58.401Z,804.29
2018-06-11T00:35:02.615Z,804.29
2018-06-11T00:35:06.819Z,804.33
2018-06-11T00:35:11.033Z,804.28
2018-06-11T00:35:15.349Z,804.33
2018-06-11T00:35:19.547Z,804.31
2018-06-11T00:35:23.754Z,804.32
2018-06-11T00:35:27.846Z,804.35
2018-06-11T00:35:32.045Z,804.36
2018-06-11T00:35:36.247Z,804.34
2018-06-11T00:35:40.452Z,804.35
2018-06-11T00:35:44.444Z,804.4
2018-06-11T00:35:48.540Z,804.33
2018-06-11T00:35:52.854Z,804.35
2018-06-11T00:35:57.166Z,804.37
2018-06-11T00:36:01.491Z,804.39
2018-06-11T00:36:05.488Z,804.38
2018-06-11T00:36:09.580Z,804.37
2018-06-11T00:36:13.783Z,804.43
2018-06-11T00:36:17.989Z,804.41
2018-06-11T00:36:22.197Z,804.36
2018-06-11T00:36:26.409Z,804.37
2018-06-11T00:36:30.637Z,804.46
2018-06-11T00:36:34.847Z,804.43
2018-06-11T00:36:38.937Z,804.41
2018-06-11T00:36:43.135Z,804.47
2018-06-11T00:36:47.348Z,804.49
2018-06-11T00:36:51.655Z,804.45
2018-06-11T00:36:55.758Z,804.49
2018-06-11T00:36:59.963Z,804.49
2018-06-11T00:37:04.173Z,804.5
2018-06-11T00:37:08.272Z,804.52
2018-06-11T00:37:12.486Z,804.46
2018-06-11T00:37:16.490Z,804.47
2018-06-11T00:37:20.743Z,804.52
2018-06-11T00:37:24.840Z,804.51
2018-06-11T00:37:28.935Z,804.49
2018-06-11T00:37:33.035Z,804.51
2018-06-11T00:37:37.140Z,804.58
2018-06-11T00:37:41.448Z,804.57
2018-06-11T00:37:45.647Z,804.58
2018-06-11T00:37:49.740Z,804.6
2018-06-11T00:37:53.833Z,804.59
2018-06-11T00:37:58.033Z,804.62
2018-06-11T00:38:02.383Z,804.57
2018-06-11T00:38:06.585Z,804.61
2018-06-11T00:38:10.682Z,804.64
2018-06-11T00:38:14.795Z,804.61
2018-06-11T00:38:19.006Z,804.61
2018-06-11T00:38:23.205Z,804.63
2018-06-11T00:38:27.304Z,804.67
2018-06-11T00:38:31.513Z,804.69
2018-06-11T00:38:35.604Z,804.68
2018-06-11T00:38:39.596Z,804.71
2018-06-11T00:38:43.796Z,804.71
2018-06-11T00:38:48.010Z,804.72
2018-06-11T00:38:52.317Z,804.71
2018-06-11T00:38:56.425Z,804.72
2018-06-11T00:39:00.729Z,804.72
2018-06-11T00:39:04.719Z,804.75
2018-06-11T00:39:08.811Z,804.76
2018-06-11T00:39:13.011Z,804.74
2018-06-11T00:39:17.320Z,804.77
2018-06-11T00:39:21.628Z,804.74
2018-06-11T00:39:25.625Z,804.79
2018-06-11T00:39:29.725Z,804.76
2018-06-11T00:39:33.930Z,804.78
2018-06-11T00:39:38.234Z,804.81
2018-06-11T00:39:42.439Z,804.81
2018-06-11T00:39:46.644Z,804.79
2018-06-11T00:39:50.844Z,804.83
2018-06-11T00:39:54.940Z,804.81
2018-06-11T00:39:58.933Z,804.84
2018-06-11T00:40:06.826Z,804.84
2018-06-11T00:40:11.030Z,804.85
2018-06-11T00:40:15.232Z,804.83
2018-06-11T00:40:19.435Z,804.87
2018-06-11T00:40:23.536Z,804.83
2018-06-11T00:40:27.846Z,804.87
2018-06-11T00:40:32.159Z,804.9
2018-06-11T00:40:36.479Z,804.93
2018-06-11T00:40:40.471Z,804.91
2018-06-11T00:40:44.678Z,804.88
2018-06-11T00:40:48.778Z,804.87
2018-06-11T00:40:52.661Z,804.92
2018-06-11T00:40:56.982Z,804.88
2018-06-11T00:41:01.184Z,804.96
2018-06-11T00:41:05.070Z,804.92
2018-06-11T00:41:09.166Z,804.89
2018-06-11T00:41:13.478Z,804.94
2018-06-11T00:41:17.680Z,804.97
2018-06-11T00:41:21.991Z,804.97
2018-06-11T00:41:26.088Z,804.98
2018-06-11T00:41:30.186Z,804.99
2018-06-11T00:41:34.390Z,804.99
2018-06-11T00:41:38.600Z,804.97
2018-06-11T00:41:42.810Z,805.01
2018-06-11T00:41:46.909Z,805.03
2018-06-11T00:41:51.217Z,805.01
2018-06-11T00:41:55.421Z,805.03
2018-06-11T00:41:59.517Z,805.02
2018-06-11T00:42:03.511Z,804.97
2018-06-11T00:42:07.828Z,805
2018-06-11T00:42:12.034Z,805.01
2018-06-11T00:42:16.141Z,805.04
2018-06-11T00:42:20.354Z,805.01
2018-06-11T00:42:24.704Z,805.05
2018-06-11T00:42:28.915Z,805.06
2018-06-11T00:42:32.806Z,805.05
2018-06-11T00:42:37.013Z,805.03
2018-06-11T00:42:41.226Z,805.06
2018-06-11T00:42:45.428Z,805.04
2018-06-11T00:42:49.739Z,805.08
2018-06-11T00:42:54.048Z,805.07
2018-06-11T00:42:58.354Z,805.08
2018-06-11T00:43:02.451Z,805.08
2018-06-11T00:43:06.659Z,805.07
2018-06-11T00:43:10.904Z,805.03
2018-06-11T00:43:14.898Z,805.06
2018-06-11T00:43:19.103Z,805.07
2018-06-11T00:43:23.404Z,805.08
2018-06-11T00:43:27.508Z,805.09
2018-06-11T00:43:31.602Z,805.11
2018-06-11T00:43:35.593Z,805.13
2018-06-11T00:43:39.582Z,805.08
2018-06-11T00:43:43.784Z,805.09
2018-06-11T00:43:47.985Z,805.07
2018-06-11T00:43:52.292Z,805.04
2018-06-11T00:43:56.385Z,805.08
2018-06-11T00:44:00.588Z,805.11
2018-06-11T00:44:04.814Z,805.1
2018-06-11T00:44:09.124Z,805.05
2018-06-11T00:44:13.433Z,805.13
2018-06-11T00:44:17.737Z,805.12
2018-06-11T00:44:21.934Z,805.1
2018-06-11T00:44:26.028Z,805.07
2018-06-11T00:44:30.018Z,805.08
2018-06-11T00:44:34.006Z,805.08
2018-06-11T00:44:38.001Z,805.11
2018-06-11T00:44:42.200Z,805.1
2018-06-11T00:44:46.521Z,805.13
2018-06-11T00:44:50.724Z,805.06
2018-06-11T00:44:55.045Z,805.07
2018-06-11T00:44:59.350Z,805.1
2018-06-11T00:45:03.344Z,805.03
2018-06-11T00:45:07.552Z,805.09
2018-06-11T00:45:11.684Z,805.09
2018-06-11T00:45:15.895Z,805.04
2018-06-11T00:45:20.099Z,805.03
2018-06-11T00:45:24.302Z,805.08
2018-06-11T00:45:28.408Z,805.06
2018-06-11T00:45:32.609Z,805.09
2018-06-11T00:45:36.809Z,805.08
2018-06-11T00:45:40.692Z,805.09
2018-06-11T00:45:44.904Z,805.04
2018-06-11T00:45:48.902Z,805.06
2018-06-11T00:45:53.009Z,805.03
2018-06-11T00:45:57.212Z,805.06
2018-06-11T00:46:01.414Z,805
2018-06-11T00:46:05.524Z,805.06
2018-06-11T00:46:09.723Z,805.07
2018-06-11T00:46:13.932Z,805.05
2018-06-11T00:46:18.136Z,805.05
2018-06-11T00:46:22.344Z,805.04
2018-06-11T00:46:26.334Z,805.05
2018-06-11T00:46:30.648Z,805.03
2018-06-11T00:46:34.858Z,805.05
2018-06-11T00:46:39.066Z,805.03
2018-06-11T00:46:43.381Z,805.02
2018-06-11T00:46:47.583Z,805.03
2018-06-11T00:46:51.900Z,805.03
2018-06-11T00:46:56.206Z,805
2018-06-11T00:47:00.421Z,805
2018-06-11T00:47:04.415Z,805.01
2018-06-11T00:47:08.404Z,805
2018-06-11T00:47:12.609Z,805.01
2018-06-11T00:47:16.924Z,805.02
2018-06-11T00:47:21.020Z,804.96
2018-06-11T00:47:25.113Z,805.01
2018-06-11T00:47:29.102Z,805.02
2018-06-11T00:47:33.303Z,804.98
2018-06-11T00:47:37.406Z,805
2018-06-11T00:47:41.606Z,804.99
2018-06-11T00:47:45.924Z,805.01
2018-06-11T00:47:50.073Z,804.99
2018-06-11T00:47:54.375Z,804.99
2018-06-11T00:47:58.579Z,804.99
2018-06-11T00:48:02.680Z,804.95
2018-06-11T00:48:06.890Z,804.97
2018-06-11T00:48:10.988Z,804.96
2018-06-11T00:48:15.185Z,804.96
2018-06-11T00:48:19.181Z,804.96
2018-06-11T00:48:23.488Z,804.91
2018-06-11T00:48:27.691Z,804.97
2018-06-11T00:48:31.901Z,804.97
2018-06-11T00:48:36.009Z,804.97
2018-06-11T00:48:40.216Z,804.93
2018-06-11T00:48:44.418Z,804.95
2018-06-11T00:48:48.517Z,804.95
2018-06-11T00:48:52.719Z,804.94
2018-06-11T00:48:57.031Z,804.94
2018-06-11T00:49:01.239Z,804.91
2018-06-11T00:49:05.449Z,804.93
2018-06-11T00:49:09.769Z,804.89
2018-06-11T00:49:14.109Z,804.92
2018-06-11T00:49:18.202Z,804.92
2018-06-11T00:49:22.408Z,804.89
2018-06-11T00:49:26.502Z,804.89
2018-06-11T00:49:30.715Z,804.93
2018-06-11T00:49:34.810Z,804.89
2018-06-11T00:49:39.012Z,804.9
2018-06-11T00:49:43.319Z,804.89
2018-06-11T00:49:47.416Z,804.84
2018-06-11T00:49:51.508Z,804.9
2018-06-11T00:49:55.822Z,804.9
2018-06-11T00:49:59.914Z,804.89
2018-06-11T00:50:04.230Z,804.88
2018-06-11T00:50:08.445Z,804.89
2018-06-11T00:50:12.540Z,804.89
2018-06-11T00:50:16.741Z,804.87
2018-06-11T00:50:20.841Z,804.88
2018-06-11T00:50:25.154Z,804.9
2018-06-11T00:50:29.469Z,804.9
2018-06-11T00:50:33.564Z,804.9
2018-06-11T00:50:37.763Z,804.86
2018-06-11T00:50:41.751Z,804.82
2018-06-11T00:50:45.954Z,804.9
2018-06-11T00:50:50.163Z,804.86
2018-06-11T00:50:54.477Z,804.89
2018-06-11T00:50:58.674Z,804.86
2018-06-11T00:51:02.885Z,804.84
2018-06-11T00:51:06.977Z,804.88
2018-06-11T00:51:11.178Z,804.86
2018-06-11T00:51:15.274Z,804.86
2018-06-11T00:51:19.472Z,804.84
2018-06-11T00:51:23.676Z,804.84
2018-06-11T00:51:27.878Z,804.87
2018-06-11T00:51:32.081Z,804.84
2018-06-11T00:51:36.068Z,804.83
2018-06-11T00:51:40.155Z,804.83
2018-06-11T00:51:44.354Z,804.89
2018-06-11T00:51:48.663Z,804.82
2018-06-11T00:51:52.984Z,804.87
2018-06-11T00:51:57.307Z,804.86
2018-06-11T00:52:01.512Z,804.84
2018-06-11T00:52:05.614Z,804.85
2018-06-11T00:52:09.819Z,804.82
2018-06-11T00:52:13.858Z,804.79
2018-06-11T00:52:18.119Z,804.85
2018-06-11T00:52:22.323Z,804.82
2018-06-11T00:52:26.632Z,804.81
2018-06-11T00:52:30.938Z,804.81
2018-06-11T00:52:35.033Z,804.79
2018-06-11T00:52:38.917Z,804.83
2018-06-11T00:52:43.020Z,804.82
2018-06-11T00:52:47.223Z,804.83
2018-06-11T00:52:51.546Z,804.81
2018-06-11T00:52:55.857Z,804.8
2018-06-11T00:53:00.056Z,804.82
2018-06-11T00:53:04.267Z,804.79
2018-06-11T00:53:08.158Z,804.82